createdAt,value
2017-07-24T00:00:47.247Z,0
2017-07-24T00:01:56.204Z,0
2017-07-24T00:03:05.485Z,0
2017-07-24T00:04:14.452Z,0
2017-07-24T00:05:23.413Z,0
2017-07-24T00:06:32.372Z,0
2017-07-24T00:07:41.648Z,0
2017-07-24T00:08:50.610Z,0
2017-07-24T00:09:59.559Z,0
2017-07-24T00:11:08.524Z,0
2017-07-24T00:12:17.806Z,0
2017-07-24T00:13:26.774Z,0
2017-07-24T00:14:35.729Z,0
2017-07-24T00:15:44.688Z,0
2017-07-24T00:16:53.693Z,0
2017-07-24T00:18:02.658Z,0
2017-07-24T00:19:11.620Z,0
2017-07-24T00:20:20.573Z,0
2017-07-24T00:21:29.529Z,0
2017-07-24T00:22:38.807Z,0
2017-07-24T00:23:47.760Z,0
2017-07-24T00:24:56.713Z,0
2017-07-24T00:26:05.694Z,0
2017-07-24T00:27:14.664Z,0
2017-07-24T00:28:23.942Z,0
2017-07-24T00:29:32.897Z,0
2017-07-24T00:30:41.853Z,0
2017-07-24T00:31:50.810Z,0
2017-07-24T00:32:59.765Z,0
2017-07-24T00:34:08.729Z,0
2017-07-24T00:35:17.682Z,0
2017-07-24T00:36:26.634Z,0
2017-07-24T00:37:35.622Z,0
2017-07-24T00:38:44.584Z,0
2017-07-24T00:39:53.541Z,0
2017-07-24T00:41:02.825Z,0
2017-07-24T00:42:11.775Z,0
2017-07-24T00:43:20.735Z,0
2017-07-24T00:44:29.696Z,0
2017-07-24T00:45:38.649Z,0
2017-07-24T00:46:47.608Z,0
2017-07-24T00:47:56.575Z,0
2017-07-24T00:49:05.529Z,0
2017-07-24T00:50:14.816Z,0
2017-07-24T00:51:23.767Z,0
2017-07-24T00:52:32.717Z,0
2017-07-24T00:53:41.670Z,0
2017-07-24T00:54:50.635Z,0
2017-07-24T00:55:59.595Z,0
2017-07-24T00:57:08.554Z,0
2017-07-24T00:58:17.515Z,0
2017-07-24T00:59:26.469Z,0
2017-07-24T01:00:35.430Z,0
2017-07-24T01:01:44.381Z,0
2017-07-24T01:02:53.342Z,0
2017-07-24T01:04:02.300Z,0
2017-07-24T01:05:11.262Z,0
2017-07-24T01:06:20.243Z,0
2017-07-24T01:07:29.215Z,0
2017-07-24T01:08:38.175Z,0
2017-07-24T01:09:47.147Z,0
2017-07-24T01:10:56.110Z,0
2017-07-24T01:12:05.073Z,0
2017-07-24T01:13:14.034Z,0
2017-07-24T01:14:22.993Z,0
2017-07-24T01:15:31.958Z,0
2017-07-24T01:16:40.920Z,0
2017-07-24T01:17:49.874Z,0
2017-07-24T01:18:58.834Z,0
2017-07-24T01:20:07.791Z,0
2017-07-24T01:21:16.750Z,0
2017-07-24T01:22:25.715Z,0
2017-07-24T01:23:34.679Z,0
2017-07-24T01:24:43.641Z,0
2017-07-24T01:25:52.925Z,0
2017-07-24T01:27:02.197Z,0
2017-07-24T01:28:11.163Z,0
2017-07-24T01:29:20.118Z,0
2017-07-24T01:30:29.078Z,0
2017-07-24T01:31:38.032Z,0
2017-07-24T01:32:46.987Z,0
2017-07-24T01:33:55.945Z,0
2017-07-24T01:35:04.922Z,0
2017-07-24T01:36:13.885Z,0
2017-07-24T01:37:22.837Z,0
2017-07-24T01:38:31.786Z,0
2017-07-24T01:39:41.060Z,0
2017-07-24T01:40:50.023Z,0
2017-07-24T01:41:58.979Z,0
2017-07-24T01:43:07.948Z,0
2017-07-24T01:44:16.916Z,0
2017-07-24T01:45:26.192Z,0
2017-07-24T01:46:35.152Z,0
2017-07-24T01:47:44.114Z,0
2017-07-24T01:48:53.069Z,0
2017-07-24T01:50:02.025Z,0
2017-07-24T01:51:11.001Z,0
2017-07-24T01:52:19.959Z,0
2017-07-24T01:53:28.914Z,0
2017-07-24T01:54:37.870Z,0
2017-07-24T01:55:46.833Z,0
2017-07-24T01:56:55.789Z,0
2017-07-24T01:58:05.071Z,0
2017-07-24T01:59:14.354Z,0
2017-07-24T02:00:23.631Z,0
2017-07-24T02:01:32.589Z,0
2017-07-24T02:02:41.542Z,0
2017-07-24T02:03:50.492Z,0
2017-07-24T02:04:59.458Z,0
2017-07-24T02:06:08.739Z,0
2017-07-24T02:07:17.697Z,0
2017-07-24T02:08:26.660Z,0
2017-07-24T02:09:35.634Z,0
2017-07-24T02:10:44.587Z,0
2017-07-24T02:11:53.550Z,0
2017-07-24T02:13:02.526Z,0
2017-07-24T02:14:11.478Z,0
2017-07-24T02:15:20.759Z,0
2017-07-24T02:16:29.719Z,0
2017-07-24T02:17:38.681Z,0
2017-07-24T02:18:47.961Z,0
2017-07-24T02:19:56.919Z,0
2017-07-24T02:21:05.890Z,0
2017-07-24T02:22:14.850Z,0
2017-07-24T02:23:23.810Z,0
2017-07-24T02:24:33.086Z,0
2017-07-24T02:25:42.044Z,0
2017-07-24T02:26:51.332Z,0
2017-07-24T02:28:00.290Z,0
2017-07-24T02:29:09.252Z,0
2017-07-24T02:30:18.213Z,0
2017-07-24T02:31:27.172Z,0
2017-07-24T02:32:36.132Z,0
2017-07-24T02:33:45.094Z,0
2017-07-24T02:34:54.380Z,0
2017-07-24T02:36:03.342Z,0
2017-07-24T02:37:12.340Z,0
2017-07-24T02:38:21.299Z,0
2017-07-24T02:39:30.260Z,0
2017-07-24T02:40:39.229Z,0
2017-07-24T02:41:48.180Z,0
2017-07-24T02:42:57.129Z,0
2017-07-24T02:44:06.099Z,0
2017-07-24T02:45:15.055Z,0
2017-07-24T02:46:24.015Z,0
2017-07-24T02:47:33.288Z,0
2017-07-24T02:48:42.256Z,0
2017-07-24T02:49:51.553Z,0
2017-07-24T02:51:00.514Z,0
2017-07-24T02:52:09.485Z,4
2017-07-24T02:53:18.441Z,4
2017-07-24T02:54:27.396Z,0
2017-07-24T02:55:36.346Z,0
2017-07-24T02:56:45.309Z,4
2017-07-24T02:57:54.275Z,4
2017-07-24T02:59:03.245Z,4
2017-07-24T03:00:12.530Z,4
2017-07-24T03:01:21.499Z,4
2017-07-24T03:02:30.467Z,8
2017-07-24T03:03:39.430Z,4
2017-07-24T03:04:48.407Z,8
2017-07-24T03:05:57.689Z,8
2017-07-24T03:07:06.980Z,8
2017-07-24T03:08:15.939Z,12
2017-07-24T03:09:24.920Z,12
2017-07-24T03:10:33.870Z,12
2017-07-24T03:11:43.147Z,16
2017-07-24T03:12:52.100Z,16
2017-07-24T03:14:01.059Z,16
2017-07-24T03:15:10.021Z,16
2017-07-24T03:16:18.968Z,16
2017-07-24T03:17:27.933Z,20
2017-07-24T03:18:36.884Z,24
2017-07-24T03:19:45.852Z,28
2017-07-24T03:20:54.813Z,28
2017-07-24T03:22:03.768Z,32
2017-07-24T03:23:12.723Z,40
2017-07-24T03:24:21.689Z,44
2017-07-24T03:25:30.636Z,44
2017-07-24T03:26:39.586Z,48
2017-07-24T03:27:48.552Z,52
2017-07-24T03:28:57.519Z,56
2017-07-24T03:30:06.849Z,56
2017-07-24T03:31:15.825Z,56
2017-07-24T03:32:24.778Z,64
2017-07-24T03:33:33.731Z,68
2017-07-24T03:34:42.687Z,68
2017-07-24T03:35:51.637Z,72
2017-07-24T03:37:00.594Z,72
2017-07-24T03:38:09.549Z,80
2017-07-24T03:39:18.518Z,76
2017-07-24T03:40:27.478Z,76
2017-07-24T03:41:36.440Z,84
2017-07-24T03:42:45.397Z,88
2017-07-24T03:43:54.363Z,88
2017-07-24T03:45:03.329Z,88
2017-07-24T03:46:12.294Z,84
2017-07-24T03:47:21.571Z,88
2017-07-24T03:48:30.536Z,120
2017-07-24T03:49:39.808Z,124
2017-07-24T03:50:48.764Z,120
2017-07-24T03:51:57.725Z,128
2017-07-24T03:53:06.693Z,148
2017-07-24T03:54:15.648Z,156
2017-07-24T03:55:24.600Z,160
2017-07-24T03:56:33.655Z,164
2017-07-24T03:57:42.614Z,160
2017-07-24T03:58:51.565Z,180
2017-07-24T04:00:00.526Z,184
2017-07-24T04:01:09.483Z,192
2017-07-24T04:02:18.444Z,220
2017-07-24T04:03:27.401Z,228
2017-07-24T04:04:36.357Z,220
2017-07-24T04:05:45.340Z,232
2017-07-24T04:06:54.298Z,260
2017-07-24T04:08:03.263Z,276
2017-07-24T04:09:12.217Z,288
2017-07-24T04:10:21.188Z,300
2017-07-24T04:11:30.149Z,316
2017-07-24T04:12:39.103Z,320
2017-07-24T04:13:48.055Z,336
2017-07-24T04:14:57.009Z,344
2017-07-24T04:16:05.962Z,364
2017-07-24T04:17:14.918Z,372
2017-07-24T04:18:23.880Z,400
2017-07-24T04:19:33.164Z,412
2017-07-24T04:20:42.129Z,432
2017-07-24T04:21:51.412Z,480
2017-07-24T04:23:00.364Z,488
2017-07-24T04:24:09.324Z,484
2017-07-24T04:25:18.280Z,492
2017-07-24T04:26:27.239Z,512
2017-07-24T04:27:36.202Z,560
2017-07-24T04:28:45.159Z,576
2017-07-24T04:29:54.125Z,588
2017-07-24T04:31:03.086Z,624
2017-07-24T04:32:12.054Z,712
2017-07-24T04:33:21.043Z,732
2017-07-24T04:34:30.314Z,720
2017-07-24T04:35:39.264Z,744
2017-07-24T04:36:48.552Z,756
2017-07-24T04:37:57.507Z,752
2017-07-24T04:39:06.460Z,744
2017-07-24T04:40:15.426Z,824
2017-07-24T04:41:24.392Z,920
2017-07-24T04:42:33.347Z,1120
2017-07-24T04:43:42.642Z,1040
2017-07-24T04:44:51.619Z,868
2017-07-24T04:46:00.581Z,796
2017-07-24T04:47:09.532Z,764
2017-07-24T04:48:18.486Z,744
2017-07-24T04:49:27.439Z,712
2017-07-24T04:50:36.397Z,704
2017-07-24T04:51:45.363Z,704
2017-07-24T04:52:54.323Z,676
2017-07-24T04:54:03.282Z,664
2017-07-24T04:55:12.243Z,704
2017-07-24T04:56:21.197Z,728
2017-07-24T04:57:30.154Z,732
2017-07-24T04:58:39.113Z,744
2017-07-24T04:59:48.079Z,780
2017-07-24T05:00:57.044Z,804
2017-07-24T05:02:06.005Z,832
2017-07-24T05:03:14.973Z,876
2017-07-24T05:04:23.928Z,868
2017-07-24T05:05:32.881Z,856
2017-07-24T05:06:41.844Z,848
2017-07-24T05:07:50.807Z,832
2017-07-24T05:08:59.764Z,812
2017-07-24T05:10:08.725Z,808
2017-07-24T05:11:17.677Z,812
2017-07-24T05:12:26.633Z,840
2017-07-24T05:13:35.600Z,840
2017-07-24T05:14:45.211Z,816
2017-07-24T05:15:54.165Z,828
2017-07-24T05:17:03.452Z,856
2017-07-24T05:18:12.411Z,912
2017-07-24T05:19:21.362Z,964
2017-07-24T05:20:30.315Z,980
2017-07-24T05:21:39.274Z,988
2017-07-24T05:22:48.229Z,996
2017-07-24T05:23:57.521Z,1004
2017-07-24T05:25:06.811Z,1072
2017-07-24T05:26:15.769Z,1108
2017-07-24T05:27:24.721Z,1124
2017-07-24T05:28:33.683Z,1104
2017-07-24T05:29:42.636Z,1120
2017-07-24T05:30:51.591Z,1116
2017-07-24T05:32:00.552Z,1152
2017-07-24T05:33:09.538Z,1148
2017-07-24T05:34:18.495Z,1160
2017-07-24T05:35:27.447Z,1144
2017-07-24T05:36:36.408Z,1072
2017-07-24T05:37:45.365Z,1084
2017-07-24T05:38:54.326Z,1116
2017-07-24T05:40:03.279Z,1072
2017-07-24T05:41:12.231Z,1040
2017-07-24T05:42:21.190Z,1104
2017-07-24T05:43:30.145Z,1080
2017-07-24T05:44:39.102Z,1048
2017-07-24T05:45:48.065Z,1064
2017-07-24T05:46:57.038Z,1076
2017-07-24T05:48:05.992Z,1140
2017-07-24T05:49:14.938Z,1088
2017-07-24T05:50:23.886Z,1032
2017-07-24T05:51:32.846Z,1000
2017-07-24T05:52:41.803Z,996
2017-07-24T05:53:50.760Z,996
2017-07-24T05:54:59.720Z,1060
2017-07-24T05:56:08.679Z,1048
2017-07-24T05:57:17.956Z,1072
2017-07-24T05:58:26.924Z,1052
2017-07-24T05:59:35.876Z,1080
2017-07-24T06:00:44.838Z,1104
2017-07-24T06:01:53.790Z,1140
2017-07-24T06:03:02.742Z,1076
2017-07-24T06:04:12.016Z,1060
2017-07-24T06:05:20.975Z,1048
2017-07-24T06:06:29.931Z,1012
2017-07-24T06:07:38.890Z,1052
2017-07-24T06:08:47.852Z,1020
2017-07-24T06:09:56.809Z,1024
2017-07-24T06:11:05.766Z,1052
2017-07-24T06:12:14.731Z,1140
2017-07-24T06:13:24.014Z,1272
2017-07-24T06:14:32.967Z,1376
2017-07-24T06:15:41.929Z,1308
2017-07-24T06:16:50.889Z,1320
2017-07-24T06:17:59.848Z,1256
2017-07-24T06:19:08.809Z,1304
2017-07-24T06:20:17.762Z,1328
2017-07-24T06:21:26.716Z,1292
2017-07-24T06:22:35.699Z,1232
2017-07-24T06:23:44.658Z,1260
2017-07-24T06:24:53.622Z,1260
2017-07-24T06:26:02.579Z,1288
2017-07-24T06:27:11.532Z,1284
2017-07-24T06:28:20.492Z,1312
2017-07-24T06:29:29.448Z,1388
2017-07-24T06:30:38.409Z,1344
2017-07-24T06:31:47.363Z,1380
2017-07-24T06:32:56.359Z,1424
2017-07-24T06:34:05.310Z,1504
2017-07-24T06:35:14.596Z,1508
2017-07-24T06:36:23.550Z,1492
2017-07-24T06:37:32.517Z,1492
2017-07-24T06:38:41.480Z,1500
2017-07-24T06:39:50.448Z,1544
2017-07-24T06:40:59.408Z,1560
2017-07-24T06:42:08.705Z,1580
2017-07-24T06:43:17.667Z,1580
2017-07-24T06:44:26.627Z,1612
2017-07-24T06:45:35.587Z,1596
2017-07-24T06:46:44.875Z,1652
2017-07-24T06:47:53.826Z,1704
2017-07-24T06:49:02.777Z,1768
2017-07-24T06:50:11.745Z,1780
2017-07-24T06:51:20.707Z,1856
2017-07-24T06:52:29.990Z,1936
2017-07-24T06:53:38.955Z,1884
2017-07-24T06:54:47.914Z,1868
2017-07-24T06:55:56.880Z,1908
2017-07-24T06:57:05.838Z,1984
2017-07-24T06:58:14.797Z,1928
2017-07-24T06:59:23.770Z,1872
2017-07-24T07:00:32.732Z,1880
2017-07-24T07:01:42.020Z,1876
2017-07-24T07:02:50.985Z,1892
2017-07-24T07:03:59.939Z,1896
2017-07-24T07:05:09.301Z,1928
2017-07-24T07:06:18.907Z,1988
2017-07-24T07:07:27.866Z,2016
2017-07-24T07:08:36.830Z,2020
2017-07-24T07:09:45.788Z,1996
2017-07-24T07:10:54.744Z,2020
2017-07-24T07:12:03.699Z,2012
2017-07-24T07:13:12.652Z,2000
2017-07-24T07:14:21.605Z,1948
2017-07-24T07:15:30.893Z,1928
2017-07-24T07:16:39.856Z,1992
2017-07-24T07:17:48.814Z,2012
2017-07-24T07:18:57.774Z,2116
2017-07-24T07:20:06.737Z,2096
2017-07-24T07:21:15.699Z,2088
2017-07-24T07:22:24.978Z,2140
2017-07-24T07:23:33.942Z,2196
2017-07-24T07:24:42.895Z,2216
2017-07-24T07:25:51.851Z,2284
2017-07-24T07:27:00.808Z,2236
2017-07-24T07:28:09.760Z,2260
2017-07-24T07:29:18.714Z,2320
2017-07-24T07:30:27.671Z,2300
2017-07-24T07:31:36.619Z,2324
2017-07-24T07:32:45.573Z,2372
2017-07-24T07:33:54.531Z,2428
2017-07-24T07:35:03.489Z,2484
2017-07-24T07:36:12.767Z,2488
2017-07-24T07:37:21.729Z,2460
2017-07-24T07:38:30.688Z,2528
2017-07-24T07:39:39.657Z,2596
2017-07-24T07:40:48.612Z,2632
2017-07-24T07:41:57.573Z,2616
2017-07-24T07:43:06.535Z,2632
2017-07-24T07:44:15.500Z,2652
2017-07-24T07:45:24.467Z,2624
2017-07-24T07:46:33.445Z,2580
2017-07-24T07:47:42.410Z,2540
2017-07-24T07:48:51.361Z,2500
2017-07-24T07:50:00.321Z,2464
2017-07-24T07:51:09.284Z,2456
2017-07-24T07:52:18.249Z,2516
2017-07-24T07:53:27.198Z,2552
2017-07-24T07:54:36.154Z,2476
2017-07-24T07:55:45.131Z,2396
2017-07-24T07:56:54.082Z,2360
2017-07-24T07:58:03.045Z,2296
2017-07-24T07:59:12.325Z,2256
2017-07-24T08:00:21.285Z,2244
2017-07-24T08:01:30.241Z,2356
2017-07-24T08:02:39.198Z,2284
2017-07-24T08:03:48.157Z,2220
2017-07-24T08:04:57.121Z,2164
2017-07-24T08:06:06.084Z,2052
2017-07-24T08:07:15.378Z,1976
2017-07-24T08:08:24.663Z,1864
2017-07-24T08:09:33.618Z,1980
2017-07-24T08:10:42.583Z,2112
2017-07-24T08:11:51.549Z,2232
2017-07-24T08:13:00.520Z,2340
2017-07-24T08:14:09.483Z,2332
2017-07-24T08:15:18.450Z,2380
2017-07-24T08:16:27.442Z,2232
2017-07-24T08:17:36.402Z,2372
2017-07-24T08:18:45.360Z,2432
2017-07-24T08:19:54.326Z,2452
2017-07-24T08:21:03.280Z,2420
2017-07-24T08:22:12.247Z,2360
2017-07-24T08:23:21.214Z,2260
2017-07-24T08:24:30.189Z,2216
2017-07-24T08:25:39.150Z,2168
2017-07-24T08:26:48.105Z,2056
2017-07-24T08:27:57.069Z,2028
2017-07-24T08:29:06.040Z,2032
2017-07-24T08:30:15.001Z,2080
2017-07-24T08:31:23.968Z,2100
2017-07-24T08:32:32.937Z,2072
2017-07-24T08:33:41.901Z,2060
2017-07-24T08:34:50.857Z,2076
2017-07-24T08:36:00.138Z,2128
2017-07-24T08:37:09.109Z,2188
2017-07-24T08:38:18.402Z,2260
2017-07-24T08:39:27.357Z,1636
2017-07-24T08:40:36.642Z,2664
2017-07-24T08:41:45.606Z,2716
2017-07-24T08:42:54.571Z,2520
2017-07-24T08:44:03.535Z,2656
2017-07-24T08:45:12.488Z,2536
2017-07-24T08:46:21.446Z,2668
2017-07-24T08:47:30.405Z,1844
2017-07-24T08:48:39.365Z,1504
2017-07-24T08:49:48.319Z,1784
2017-07-24T08:50:57.282Z,2084
2017-07-24T08:52:06.241Z,2524
2017-07-24T08:53:15.212Z,2172
2017-07-24T08:54:24.494Z,1784
2017-07-24T08:55:33.452Z,1684
2017-07-24T08:56:42.404Z,1236
2017-07-24T08:57:51.370Z,1344
2017-07-24T08:59:00.334Z,1340
2017-07-24T09:00:09.295Z,1212
2017-07-24T09:01:18.255Z,1416
2017-07-24T09:02:27.210Z,1680
2017-07-24T09:03:36.169Z,1968
2017-07-24T09:04:45.127Z,1840
2017-07-24T09:05:54.091Z,1396
2017-07-24T09:07:03.052Z,1648
2017-07-24T09:08:12.022Z,1728
2017-07-24T09:09:21.301Z,1716
2017-07-24T09:10:30.270Z,1704
2017-07-24T09:11:39.271Z,1792
2017-07-24T09:12:48.543Z,2200
2017-07-24T09:13:57.503Z,1984
2017-07-24T09:15:06.464Z,2416
2017-07-24T09:16:15.419Z,2760
2017-07-24T09:17:24.377Z,3024
2017-07-24T09:18:33.341Z,3208
2017-07-24T09:19:42.303Z,2612
2017-07-24T09:20:51.261Z,2920
2017-07-24T09:22:00.217Z,3216
2017-07-24T09:23:09.171Z,3036
2017-07-24T09:24:18.121Z,3248
2017-07-24T09:25:27.090Z,3088
2017-07-24T09:26:36.054Z,3220
2017-07-24T09:27:45.333Z,2476
2017-07-24T09:28:54.294Z,2632
2017-07-24T09:30:03.256Z,2344
2017-07-24T09:31:12.216Z,2240
2017-07-24T09:32:21.494Z,1860
2017-07-24T09:33:30.791Z,1536
2017-07-24T09:34:39.752Z,1372
2017-07-24T09:35:48.721Z,1316
2017-07-24T09:36:57.690Z,1332
2017-07-24T09:38:06.651Z,1600
2017-07-24T09:39:15.612Z,2008
2017-07-24T09:40:24.574Z,2384
2017-07-24T09:41:33.551Z,2480
2017-07-24T09:42:42.840Z,2468
2017-07-24T09:43:51.801Z,2176
2017-07-24T09:45:00.766Z,2556
2017-07-24T09:46:09.757Z,2868
2017-07-24T09:47:18.728Z,3036
2017-07-24T09:48:27.689Z,3188
2017-07-24T09:49:36.976Z,3176
2017-07-24T09:50:45.946Z,3236
2017-07-24T09:51:54.903Z,3096
2017-07-24T09:53:03.860Z,2848
2017-07-24T09:54:12.819Z,2576
2017-07-24T09:55:21.781Z,2544
2017-07-24T09:56:30.746Z,2900
2017-07-24T09:57:39.718Z,3064
2017-07-24T09:58:48.671Z,3076
2017-07-24T09:59:57.639Z,3092
2017-07-24T10:01:06.926Z,2988
2017-07-24T10:02:15.883Z,2796
2017-07-24T10:03:24.838Z,2600
2017-07-24T10:04:33.802Z,2524
2017-07-24T10:05:42.759Z,2640
2017-07-24T10:06:51.721Z,2684
2017-07-24T10:08:00.680Z,2800
2017-07-24T10:09:09.962Z,3048
2017-07-24T10:10:18.929Z,3192
2017-07-24T10:11:28.218Z,3520
2017-07-24T10:12:37.177Z,3568
2017-07-24T10:13:46.145Z,3620
2017-07-24T10:14:55.103Z,3788
2017-07-24T10:16:04.056Z,3776
2017-07-24T10:17:13.356Z,3632
2017-07-24T10:18:22.323Z,3416
2017-07-24T10:19:31.286Z,3248
2017-07-24T10:20:40.263Z,3080
2017-07-24T10:21:49.228Z,3068
2017-07-24T10:22:58.183Z,3052
2017-07-24T10:24:07.141Z,3144
2017-07-24T10:25:16.185Z,2680
2017-07-24T10:26:25.149Z,2836
2017-07-24T10:27:34.109Z,3348
2017-07-24T10:28:43.077Z,3344
2017-07-24T10:29:52.032Z,2860
2017-07-24T10:31:00.986Z,2748
2017-07-24T10:32:09.955Z,2568
2017-07-24T10:33:18.919Z,2420
2017-07-24T10:34:27.877Z,2700
2017-07-24T10:35:36.849Z,2792
2017-07-24T10:36:45.832Z,2844
2017-07-24T10:37:55.124Z,2592
2017-07-24T10:39:04.087Z,2448
2017-07-24T10:40:13.046Z,2492
2017-07-24T10:41:22.011Z,3020
2017-07-24T10:42:30.968Z,3368
2017-07-24T10:43:39.922Z,3244
2017-07-24T10:44:48.875Z,3100
2017-07-24T10:45:57.845Z,3064
2017-07-24T10:47:06.810Z,3012
2017-07-24T10:48:15.771Z,2968
2017-07-24T10:49:24.742Z,3004
2017-07-24T10:50:33.707Z,3132
2017-07-24T10:51:42.681Z,3112
2017-07-24T10:52:51.634Z,3212
2017-07-24T10:54:00.595Z,3200
2017-07-24T10:55:09.556Z,3180
2017-07-24T10:56:18.524Z,3196
2017-07-24T10:57:27.482Z,3204
2017-07-24T10:58:36.441Z,3152
2017-07-24T10:59:45.409Z,3204
2017-07-24T11:00:54.370Z,3136
2017-07-24T11:02:03.339Z,2976
2017-07-24T11:03:12.304Z,2896
2017-07-24T11:04:21.583Z,2928
2017-07-24T11:05:30.539Z,2920
2017-07-24T11:06:39.504Z,2952
2017-07-24T11:07:48.468Z,2924
2017-07-24T11:08:57.435Z,2676
2017-07-24T11:10:06.721Z,2644
2017-07-24T11:11:15.684Z,2664
2017-07-24T11:12:24.636Z,2780
2017-07-24T11:13:33.606Z,2760
2017-07-24T11:14:42.561Z,2620
2017-07-24T11:15:51.524Z,2540
2017-07-24T11:17:00.484Z,2568
2017-07-24T11:18:09.447Z,2648
2017-07-24T11:19:18.400Z,2744
2017-07-24T11:20:27.365Z,2716
2017-07-24T11:21:36.332Z,2700
2017-07-24T11:22:45.291Z,2728
2017-07-24T11:23:54.242Z,2820
2017-07-24T11:25:03.202Z,2872
2017-07-24T11:26:12.157Z,2912
2017-07-24T11:27:21.111Z,3040
2017-07-24T11:28:30.077Z,3048
2017-07-24T11:29:39.032Z,3104
2017-07-24T11:30:48.001Z,3020
2017-07-24T11:31:56.968Z,2892
2017-07-24T11:33:05.923Z,2828
2017-07-24T11:34:14.878Z,2808
2017-07-24T11:35:23.858Z,2820
2017-07-24T11:36:32.813Z,2748
2017-07-24T11:37:41.765Z,2644
2017-07-24T11:38:50.723Z,2584
2017-07-24T11:39:59.680Z,2564
2017-07-24T11:41:08.645Z,2612
2017-07-24T11:42:17.610Z,2544
2017-07-24T11:43:26.576Z,2588
2017-07-24T11:44:35.536Z,2728
2017-07-24T11:45:44.501Z,2844
2017-07-24T11:46:53.460Z,2708
2017-07-24T11:48:02.423Z,2596
2017-07-24T11:49:11.398Z,2612
2017-07-24T11:50:20.682Z,2528
2017-07-24T11:51:29.972Z,2508
2017-07-24T11:52:38.940Z,2560
2017-07-24T11:53:47.899Z,2568
2017-07-24T11:54:56.866Z,2564
2017-07-24T11:56:06.164Z,2604
2017-07-24T11:57:15.119Z,2572
2017-07-24T11:58:24.086Z,2612
2017-07-24T11:59:33.047Z,2520
2017-07-24T12:00:42.006Z,2480
2017-07-24T12:01:50.963Z,2412
2017-07-24T12:02:59.923Z,2360
2017-07-24T12:04:09.218Z,2484
2017-07-24T12:05:18.215Z,2524
2017-07-24T12:06:27.178Z,2560
2017-07-24T12:07:36.138Z,2588
2017-07-24T12:08:45.417Z,2584
2017-07-24T12:09:54.378Z,2512
2017-07-24T12:11:03.338Z,2444
2017-07-24T12:12:12.310Z,2444
2017-07-24T12:13:21.281Z,2408
2017-07-24T12:14:30.240Z,2380
2017-07-24T12:15:39.198Z,2420
2017-07-24T12:16:48.153Z,2436
2017-07-24T12:17:57.126Z,2636
2017-07-24T12:19:06.099Z,2660
2017-07-24T12:20:15.059Z,2684
2017-07-24T12:21:24.026Z,2624
2017-07-24T12:22:33.314Z,2572
2017-07-24T12:23:42.277Z,2540
2017-07-24T12:24:51.564Z,2396
2017-07-24T12:26:00.842Z,2340
2017-07-24T12:27:09.805Z,2320
2017-07-24T12:28:18.759Z,2412
2017-07-24T12:29:27.719Z,2436
2017-07-24T12:30:36.678Z,2356
2017-07-24T12:31:45.633Z,2360
2017-07-24T12:32:54.594Z,2384
2017-07-24T12:34:03.556Z,2444
2017-07-24T12:35:12.545Z,2480
2017-07-24T12:36:21.512Z,2468
2017-07-24T12:37:30.478Z,2528
2017-07-24T12:38:39.447Z,2488
2017-07-24T12:39:48.417Z,2460
2017-07-24T12:40:57.380Z,2436
2017-07-24T12:42:06.341Z,2716
2017-07-24T12:43:15.290Z,2744
2017-07-24T12:44:24.247Z,2692
2017-07-24T12:45:33.226Z,2652
2017-07-24T12:46:42.183Z,2652
2017-07-24T12:47:51.141Z,2656
2017-07-24T12:49:00.091Z,2764
2017-07-24T12:50:09.388Z,2700
2017-07-24T12:51:18.349Z,2592
2017-07-24T12:52:27.304Z,2552
2017-07-24T12:53:36.270Z,2428
2017-07-24T12:54:45.247Z,2288
2017-07-24T12:55:54.524Z,2272
2017-07-24T12:57:03.487Z,2252
2017-07-24T12:58:12.442Z,2168
2017-07-24T12:59:21.408Z,2256
2017-07-24T13:00:30.380Z,2292
2017-07-24T13:01:39.356Z,2320
2017-07-24T13:02:48.320Z,2284
2017-07-24T13:03:57.283Z,2280
2017-07-24T13:05:06.649Z,2316
2017-07-24T13:06:15.939Z,2360
2017-07-24T13:07:24.899Z,2276
2017-07-24T13:08:33.861Z,2196
2017-07-24T13:09:43.140Z,2324
2017-07-24T13:10:52.102Z,2252
2017-07-24T13:12:01.055Z,2184
2017-07-24T13:13:10.011Z,2152
2017-07-24T13:14:18.997Z,2124
2017-07-24T13:15:27.951Z,2168
2017-07-24T13:16:36.920Z,2224
2017-07-24T13:17:45.894Z,2124
2017-07-24T13:18:54.850Z,2176
2017-07-24T13:20:03.810Z,2168
2017-07-24T13:21:12.774Z,2164
2017-07-24T13:22:22.059Z,2296
2017-07-24T13:23:31.027Z,2360
2017-07-24T13:24:40.302Z,2356
2017-07-24T13:25:49.266Z,2428
2017-07-24T13:26:58.244Z,2472
2017-07-24T13:28:07.531Z,2260
2017-07-24T13:29:16.496Z,2152
2017-07-24T13:30:25.450Z,2064
2017-07-24T13:31:34.407Z,2064
2017-07-24T13:32:43.372Z,2072
2017-07-24T13:33:52.340Z,1992
2017-07-24T13:35:01.318Z,1968
2017-07-24T13:36:10.279Z,1888
2017-07-24T13:37:19.234Z,1892
2017-07-24T13:38:28.199Z,1888
2017-07-24T13:39:37.172Z,1872
2017-07-24T13:40:46.156Z,1844
2017-07-24T13:41:55.438Z,1940
2017-07-24T13:43:04.401Z,2016
2017-07-24T13:44:13.365Z,2100
2017-07-24T13:45:22.327Z,2080
2017-07-24T13:46:31.370Z,2176
2017-07-24T13:47:40.334Z,2232
2017-07-24T13:48:49.292Z,2144
2017-07-24T13:49:58.256Z,2084
2017-07-24T13:51:07.215Z,1908
2017-07-24T13:52:16.182Z,1828
2017-07-24T13:53:25.137Z,1776
2017-07-24T13:54:34.089Z,1772
2017-07-24T13:55:43.359Z,1704
2017-07-24T13:56:52.325Z,1704
2017-07-24T13:58:01.285Z,1640
2017-07-24T13:59:10.253Z,1596
2017-07-24T14:00:19.208Z,1640
2017-07-24T14:01:28.166Z,1512
2017-07-24T14:02:37.129Z,1460
2017-07-24T14:03:46.085Z,1576
2017-07-24T14:04:55.051Z,1716
2017-07-24T14:06:04.025Z,1764
2017-07-24T14:07:12.976Z,1940
2017-07-24T14:08:21.936Z,2032
2017-07-24T14:09:30.899Z,2100
2017-07-24T14:10:39.862Z,2108
2017-07-24T14:11:49.142Z,2048
2017-07-24T14:12:58.103Z,2028
2017-07-24T14:14:07.067Z,2048
2017-07-24T14:15:16.031Z,2244
2017-07-24T14:16:24.989Z,2260
2017-07-24T14:17:33.949Z,2180
2017-07-24T14:18:42.924Z,1980
2017-07-24T14:19:51.887Z,1860
2017-07-24T14:21:00.846Z,1760
2017-07-24T14:22:09.814Z,1728
2017-07-24T14:23:19.099Z,1796
2017-07-24T14:24:28.060Z,1924
2017-07-24T14:25:37.025Z,2200
2017-07-24T14:26:45.979Z,2036
2017-07-24T14:27:54.939Z,1976
2017-07-24T14:29:03.903Z,1936
2017-07-24T14:30:12.858Z,2024
2017-07-24T14:31:22.149Z,2096
2017-07-24T14:32:31.110Z,2120
2017-07-24T14:33:40.073Z,2116
2017-07-24T14:34:49.030Z,2104
2017-07-24T14:35:57.982Z,2072
2017-07-24T14:37:06.934Z,2088
2017-07-24T14:38:15.896Z,2012
2017-07-24T14:39:24.854Z,1996
2017-07-24T14:40:33.822Z,1972
2017-07-24T14:41:42.783Z,1860
2017-07-24T14:42:51.748Z,1840
2017-07-24T14:44:00.714Z,1880
2017-07-24T14:45:09.673Z,1912
2017-07-24T14:46:18.643Z,1880
2017-07-24T14:47:27.602Z,1860
2017-07-24T14:48:36.576Z,1988
2017-07-24T14:49:45.546Z,2044
2017-07-24T14:50:54.508Z,1980
2017-07-24T14:52:03.809Z,1968
2017-07-24T14:53:12.767Z,1916
2017-07-24T14:54:21.721Z,1904
2017-07-24T14:55:31.009Z,1940
2017-07-24T14:56:39.971Z,1928
2017-07-24T14:57:48.932Z,1896
2017-07-24T14:58:57.883Z,1840
2017-07-24T15:00:06.843Z,1764
2017-07-24T15:01:15.805Z,1712
2017-07-24T15:02:24.768Z,1624
2017-07-24T15:03:33.729Z,1536
2017-07-24T15:04:42.689Z,1488
2017-07-24T15:05:51.650Z,1412
2017-07-24T15:07:00.605Z,1404
2017-07-24T15:08:09.568Z,1396
2017-07-24T15:09:18.535Z,1416
2017-07-24T15:10:27.497Z,1488
2017-07-24T15:11:36.457Z,1592
2017-07-24T15:12:45.443Z,1672
2017-07-24T15:13:54.402Z,1652
2017-07-24T15:15:03.359Z,1652
2017-07-24T15:16:12.326Z,1652
2017-07-24T15:17:21.285Z,1704
2017-07-24T15:18:30.261Z,1708
2017-07-24T15:19:39.228Z,1712
2017-07-24T15:20:48.186Z,1664
2017-07-24T15:21:57.156Z,1624
2017-07-24T15:23:06.117Z,1564
2017-07-24T15:24:15.119Z,1528
2017-07-24T15:25:24.406Z,1500
2017-07-24T15:26:33.696Z,1476
2017-07-24T15:27:42.662Z,1416
2017-07-24T15:28:51.622Z,1380
2017-07-24T15:30:00.581Z,1380
2017-07-24T15:31:09.547Z,1404
2017-07-24T15:32:18.501Z,1428
2017-07-24T15:33:27.458Z,1420
2017-07-24T15:34:36.429Z,1396
2017-07-24T15:35:45.387Z,1392
2017-07-24T15:36:54.343Z,1384
2017-07-24T15:38:03.309Z,1388
2017-07-24T15:39:12.275Z,1384
2017-07-24T15:40:21.236Z,1344
2017-07-24T15:41:30.224Z,1304
2017-07-24T15:42:39.206Z,1300